createdAt,value
2022-11-19T00:02:03.067Z,3.24
2022-11-19T00:04:30.923Z,3.15
2022-11-19T00:06:58.790Z,3.07
2022-11-19T00:09:28.040Z,3.10
2022-11-19T00:12:14.370Z,3.10
2022-11-19T00:14:42.036Z,3.24
2022-11-19T00:17:09.789Z,3.22
2022-11-19T00:19:37.537Z,3.07
2022-11-19T00:22:05.437Z,3.13
2022-11-19T00:24:34.539Z,3.24
2022-11-19T00:27:02.457Z,3.12
2022-11-19T00:29:30.473Z,3.18
2022-11-19T00:31:58.162Z,3.27
2022-11-19T00:34:25.862Z,3.19
2022-11-19T00:36:53.803Z,3.20
2022-11-19T00:39:22.359Z,3.08
2022-11-19T00:41:51.731Z,3.04
2022-11-19T00:44:19.540Z,3.11
2022-11-19T00:46:47.385Z,3.01
2022-11-19T00:49:15.206Z,2.98
2022-11-19T00:51:43.093Z,3.07
2022-11-19T00:54:10.943Z,3.09
2022-11-19T00:56:41.018Z,3.08
2022-11-19T00:59:12.354Z,3.00
2022-11-19T01:01:40.141Z,2.90
2022-11-19T01:04:08.134Z,3.02
2022-11-19T01:06:36.171Z,2.94
2022-11-19T01:09:04.533Z,3.03
2022-11-19T01:11:35.403Z,3.08
2022-11-19T01:14:06.502Z,2.92
2022-11-19T01:16:38.755Z,3.00
2022-11-19T01:19:10.550Z,2.77
2022-11-19T01:21:38.315Z,2.84
2022-11-19T01:24:09.492Z,2.56
2022-11-19T01:26:42.874Z,2.67
2022-11-19T01:29:13.287Z,2.68
2022-11-19T01:31:42.497Z,2.76
2022-11-19T01:34:10.392Z,2.71
2022-11-19T01:36:38.177Z,2.72
2022-11-19T01:39:05.930Z,2.74
2022-11-19T01:41:44.132Z,2.73
2022-11-19T01:45:01.455Z,2.76
2022-11-19T01:47:32.890Z,2.83
2022-11-19T01:50:00.880Z,2.78
2022-11-19T01:52:28.759Z,2.72
2022-11-19T01:55:07.392Z,2.80
2022-11-19T01:57:39.488Z,2.81
2022-11-19T02:00:10.915Z,2.75
2022-11-19T02:02:40.038Z,2.79
2022-11-19T02:05:09.015Z,2.74
2022-11-19T02:07:43.063Z,2.67
2022-11-19T02:10:11.284Z,2.81
2022-11-19T02:12:55.499Z,2.78
2022-11-19T02:15:37.719Z,2.75
2022-11-19T02:18:35.154Z,2.77
2022-11-19T02:21:22.904Z,2.88
2022-11-19T02:24:18.133Z,2.91
2022-11-19T02:27:27.392Z,2.88
2022-11-19T02:30:16.418Z,2.83
2022-11-19T02:32:58.439Z,2.77
2022-11-19T02:35:44.007Z,2.65
2022-11-19T02:38:25.124Z,2.70
2022-11-19T02:41:22.382Z,2.62
2022-11-19T02:44:20.920Z,2.71
2022-11-19T02:46:53.768Z,2.72
2022-11-19T02:49:28.891Z,2.80
2022-11-19T02:51:56.770Z,2.78
2022-11-19T02:54:26.619Z,2.66
2022-11-19T02:56:58.900Z,2.68
2022-11-19T02:59:51.723Z,2.71
2022-11-19T03:02:44.248Z,2.66
2022-11-19T03:05:20.823Z,2.71
2022-11-19T03:07:48.888Z,2.54
2022-11-19T03:10:22.524Z,2.55
2022-11-19T03:12:57.288Z,2.48
2022-11-19T03:15:59.939Z,2.53
2022-11-19T03:18:39.628Z,2.51
2022-11-19T03:21:15.654Z,2.43
2022-11-19T03:23:51.199Z,2.49
2022-11-19T03:26:27.670Z,2.34
2022-11-19T03:29:01.663Z,2.34
2022-11-19T03:31:33.861Z,2.41
2022-11-19T03:34:12.283Z,2.40
2022-11-19T03:36:48.627Z,2.51
2022-11-19T03:39:20.998Z,2.56
2022-11-19T03:41:53.080Z,2.71
2022-11-19T03:44:30.369Z,2.66
2022-11-19T03:47:04.484Z,2.44
2022-11-19T03:49:40.174Z,2.59
2022-11-19T03:52:12.636Z,2.68
2022-11-19T03:54:41.831Z,2.60
2022-11-19T03:57:13.478Z,2.55
2022-11-19T03:59:41.393Z,2.63
2022-11-19T04:02:11.684Z,2.60
2022-11-19T04:04:41.370Z,2.49
2022-11-19T04:07:13.140Z,2.60
2022-11-19T04:09:46.099Z,2.43
2022-11-19T04:12:17.684Z,2.35
2022-11-19T04:17:56.361Z,2.41
2022-11-19T04:20:25.472Z,2.36
2022-11-19T04:22:53.376Z,2.37
2022-11-19T04:25:21.253Z,2.20
2022-11-19T04:27:51.648Z,2.35
2022-11-19T04:30:19.656Z,2.36
2022-11-19T04:32:47.543Z,2.42
2022-11-19T04:35:18.101Z,2.34
2022-11-19T04:37:47.333Z,2.37
2022-11-19T04:40:15.576Z,2.27
2022-11-19T04:42:43.533Z,2.24
2022-11-19T04:45:11.716Z,2.15
2022-11-19T04:47:39.605Z,2.10
2022-11-19T04:50:09.028Z,2.14
2022-11-19T04:52:40.844Z,1.98
2022-11-19T04:55:10.973Z,2.10
2022-11-19T04:57:38.805Z,1.90
2022-11-19T05:00:08.882Z,1.81
2022-11-19T05:02:36.703Z,1.68
2022-11-19T05:05:05.502Z,1.66
2022-11-19T05:07:33.391Z,1.55
2022-11-19T05:10:01.742Z,1.61
2022-11-19T05:12:31.206Z,1.46
2022-11-19T05:15:01.677Z,1.33
2022-11-19T05:17:30.774Z,1.20
2022-11-19T05:20:00.171Z,1.13
2022-11-19T05:22:27.963Z,0.82
2022-11-19T05:24:55.705Z,0.78
2022-11-19T05:27:24.442Z,0.80
2022-11-19T05:29:53.848Z,0.81
2022-11-19T05:32:21.650Z,0.73
2022-11-19T05:34:49.357Z,0.58
2022-11-19T05:37:17.111Z,0.63
2022-11-19T05:39:44.943Z,0.58
2022-11-19T05:42:13.501Z,0.53
2022-11-19T05:44:41.245Z,0.63
2022-11-19T05:47:10.534Z,0.53
2022-11-19T05:49:38.250Z,0.54
2022-11-19T05:52:05.933Z,0.47
2022-11-19T05:54:33.945Z,0.39
2022-11-19T05:57:01.965Z,0.46
2022-11-19T05:59:29.867Z,0.42
2022-11-19T06:01:57.795Z,0.38
2022-11-19T06:04:27.007Z,0.38
2022-11-19T06:06:54.768Z,0.24
2022-11-19T06:09:22.918Z,0.23
2022-11-19T06:11:50.916Z,0.19
2022-11-19T06:14:22.130Z,0.19
2022-11-19T06:16:51.338Z,0.08
2022-11-19T06:19:19.919Z,0.20
2022-11-19T06:21:50.852Z,0.18
2022-11-19T06:24:20.544Z,0.24
2022-11-19T06:26:48.505Z,0.15
2022-11-19T06:29:18.344Z,0.07
2022-11-19T06:31:46.844Z,-0.03
2022-11-19T06:34:15.155Z,0.06
2022-11-19T06:36:47.683Z,0.09
2022-11-19T06:39:20.028Z,0.02
2022-11-19T06:41:48.640Z,-0.03
2022-11-19T06:44:17.903Z,-0.01
2022-11-19T06:46:45.788Z,-0.07
2022-11-19T06:49:19.682Z,-0.01
2022-11-19T06:51:48.246Z,-0.11
2022-11-19T06:54:16.066Z,-0.08
2022-11-19T06:56:45.254Z,-0.15
2022-11-19T06:59:13.238Z,-0.17
2022-11-19T07:01:41.195Z,-0.19
2022-11-19T07:04:10.085Z,-0.09
2022-11-19T07:06:37.863Z,-0.18
2022-11-19T07:09:05.670Z,-0.05
2022-11-19T07:11:33.628Z,-0.10
2022-11-19T07:14:03.823Z,-0.12
2022-11-19T07:16:34.853Z,-0.18
2022-11-19T07:19:06.750Z,-0.23
2022-11-19T07:21:35.429Z,-0.29
2022-11-19T07:24:07.760Z,-0.25
2022-11-19T07:26:37.167Z,-0.26
2022-11-19T07:29:08.303Z,-0.23
2022-11-19T07:31:36.083Z,-0.20
2022-11-19T07:34:06.953Z,-0.21
2022-11-19T07:36:35.202Z,-0.16
2022-11-19T07:39:03.942Z,-0.18
2022-11-19T07:41:50.622Z,-0.20
2022-11-19T07:44:19.904Z,-0.14
2022-11-19T07:46:47.969Z,-0.04
2022-11-19T07:49:15.910Z,-0.10
2022-11-19T07:51:44.600Z,-0.04
2022-11-19T07:54:14.188Z,-0.08
2022-11-19T07:56:42.320Z,0.07
2022-11-19T07:59:11.423Z,0.04
2022-11-19T08:01:44.451Z,-0.01
2022-11-19T08:04:13.505Z,0.13
2022-11-19T08:06:43.867Z,0.06
2022-11-19T08:09:13.369Z,0.15
2022-11-19T08:11:51.455Z,0.03
2022-11-19T08:14:19.422Z,0.08
2022-11-19T08:17:07.535Z,0.08
2022-11-19T08:19:35.418Z,0.24
2022-11-19T08:22:04.113Z,0.22
2022-11-19T08:24:34.340Z,0.36
2022-11-19T08:27:02.150Z,0.46
2022-11-19T08:29:29.979Z,0.50
2022-11-19T08:31:59.153Z,0.51
2022-11-19T08:34:27.024Z,0.60
2022-11-19T08:36:54.862Z,0.67
2022-11-19T08:39:22.657Z,0.72
2022-11-19T08:48:25.176Z,0.65
2022-11-19T08:50:53.077Z,0.71
2022-11-19T08:53:21.204Z,0.53
2022-11-19T08:55:51.513Z,0.70
2022-11-19T08:58:19.276Z,0.75
2022-11-19T09:00:47.088Z,0.87
2022-11-19T09:03:15.063Z,1.10
2022-11-19T09:05:44.234Z,1.10
2022-11-19T09:08:11.957Z,1.04
2022-11-19T09:10:40.290Z,1.19
2022-11-19T09:13:08.194Z,1.09
2022-11-19T09:15:36.049Z,1.09
2022-11-19T09:18:04.246Z,1.19
2022-11-19T09:20:32.054Z,1.21
2022-11-19T09:23:03.671Z,1.47
2022-11-19T09:25:32.906Z,1.46
2022-11-19T09:28:01.443Z,1.44
2022-11-19T09:30:29.384Z,1.38
2022-11-19T09:32:59.392Z,1.31
2022-11-19T09:35:27.143Z,1.53
2022-11-19T09:37:54.839Z,1.41
2022-11-19T09:40:26.569Z,1.76
2022-11-19T09:43:12.547Z,1.72
2022-11-19T09:45:56.639Z,1.62
2022-11-19T09:48:36.055Z,1.72
2022-11-19T09:51:11.140Z,1.58
2022-11-19T09:53:45.438Z,1.81
2022-11-19T09:56:27.363Z,2.09
2022-11-19T09:58:57.869Z,2.36
2022-11-19T10:01:28.160Z,2.50
2022-11-19T10:03:56.356Z,2.50
2022-11-19T10:06:34.918Z,2.58
2022-11-19T10:09:35.704Z,3.02
2022-11-19T10:12:30.485Z,2.97
2022-11-19T10:15:16.519Z,2.80
2022-11-19T10:18:04.919Z,2.68
2022-11-19T10:20:55.721Z,2.63
2022-11-19T10:23:42.554Z,3.01
2022-11-19T10:26:16.165Z,3.10
2022-11-19T10:28:55.611Z,3.05
2022-11-19T10:31:36.676Z,2.87
2022-11-19T10:34:15.155Z,3.12
2022-11-19T10:36:47.831Z,3.30
2022-11-19T10:39:22.980Z,3.42
2022-11-19T10:41:58.813Z,3.39
2022-11-19T10:44:42.342Z,3.52
2022-11-19T10:47:18.030Z,3.67
2022-11-19T10:49:51.886Z,3.57
2022-11-19T10:52:29.863Z,3.63
2022-11-19T10:55:05.337Z,3.76
2022-11-19T10:57:34.206Z,3.65
2022-11-19T11:00:04.696Z,3.65
2022-11-19T11:02:46.889Z,3.65
2022-11-19T11:05:17.635Z,3.79
2022-11-19T11:07:51.145Z,4.09
2022-11-19T11:10:34.264Z,3.97
2022-11-19T11:13:55.976Z,4.20
2022-11-19T11:16:39.877Z,4.14
2022-11-19T11:19:14.594Z,4.06
2022-11-19T11:21:43.672Z,4.09
2022-11-19T11:24:15.730Z,4.30
2022-11-19T11:26:43.656Z,4.50
2022-11-19T11:29:27.154Z,4.56
2022-11-19T11:31:56.422Z,4.45
2022-11-19T11:34:35.665Z,4.32
2022-11-19T11:37:11.037Z,4.07
2022-11-19T11:39:44.270Z,4.41
2022-11-19T11:42:19.311Z,4.54
2022-11-19T11:44:54.793Z,4.29
2022-11-19T11:47:30.164Z,4.03
2022-11-19T11:50:08.602Z,4.09
2022-11-19T11:52:42.958Z,3.90
2022-11-19T11:55:32.923Z,3.98
2022-11-19T11:58:03.838Z,4.04
2022-11-19T12:00:36.296Z,3.90
2022-11-19T12:03:09.449Z,4.03
2022-11-19T12:05:53.491Z,3.67
2022-11-19T12:08:50.329Z,3.79
2022-11-19T12:11:27.534Z,3.91
2022-11-19T12:14:10.746Z,4.02
2022-11-19T12:16:55.466Z,4.01
2022-11-19T12:19:58.214Z,4.14
2022-11-19T12:22:44.822Z,4.07
2022-11-19T12:25:30.857Z,4.24
2022-11-19T12:28:25.784Z,4.45
2022-11-19T12:31:11.318Z,4.45
2022-11-19T12:34:03.194Z,4.38
2022-11-19T12:36:50.549Z,4.33
2022-11-19T12:39:40.246Z,4.47
2022-11-19T12:42:41.587Z,4.37
2022-11-19T12:45:20.882Z,4.55
2022-11-19T12:48:36.474Z,4.63
2022-11-19T12:51:14.638Z,5.33
2022-11-19T12:54:25.341Z,5.33
2022-11-19T12:57:20.593Z,5.24
2022-11-19T13:00:10.364Z,5.36
2022-11-19T13:02:53.224Z,5.34
2022-11-19T13:05:32.515Z,5.05
2022-11-19T13:08:10.251Z,5.12
2022-11-19T13:10:47.045Z,5.13
2022-11-19T13:13:22.220Z,5.60
2022-11-19T13:15:59.588Z,5.68
2022-11-19T13:18:34.659Z,5.78
2022-11-19T13:21:07.533Z,5.83
2022-11-19T13:23:42.439Z,5.53
2022-11-19T13:26:17.143Z,5.17
2022-11-19T13:28:53.284Z,5.08
2022-11-19T13:31:33.540Z,5.13
2022-11-19T13:34:16.090Z,4.78
2022-11-19T13:36:58.213Z,4.33
2022-11-19T13:39:33.652Z,4.29
2022-11-19T13:42:26.039Z,4.06
2022-11-19T13:44:54.208Z,4.25
2022-11-19T13:47:27.615Z,4.24
2022-11-19T13:50:01.923Z,4.08
2022-11-19T13:52:40.190Z,4.08
2022-11-19T13:55:31.885Z,4.10
2022-11-19T13:58:16.598Z,3.87
2022-11-19T14:01:19.692Z,3.74
2022-11-19T14:04:10.188Z,3.72
2022-11-19T14:06:57.602Z,3.95
2022-11-19T14:09:40.391Z,3.94
2022-11-19T14:12:47.461Z,4.07
2022-11-19T14:15:48.482Z,4.09
2022-11-19T14:18:43.912Z,4.20
2022-11-19T14:22:01.050Z,4.06
2022-11-19T14:25:10.924Z,3.97
2022-11-19T14:27:40.188Z,4.13
2022-11-19T14:31:02.414Z,3.97
2022-11-19T14:34:01.277Z,3.99
2022-11-19T14:36:43.519Z,3.78
2022-11-19T14:39:23.717Z,3.57
2022-11-19T14:42:15.049Z,3.57
2022-11-19T14:44:44.421Z,3.62
2022-11-19T14:47:38.700Z,3.28
2022-11-19T14:50:09.519Z,3.32
2022-11-19T14:52:50.342Z,3.27
2022-11-19T14:55:22.744Z,3.16
2022-11-19T14:57:59.847Z,3.16
2022-11-19T15:00:32.498Z,3.02
2022-11-19T15:03:09.724Z,2.99
2022-11-19T15:05:43.358Z,2.90
2022-11-19T15:08:47.508Z,2.96
2022-11-19T15:11:16.954Z,2.88
2022-11-19T15:13:46.027Z,2.82
2022-11-19T15:16:18.792Z,2.74
2022-11-19T15:19:18.291Z,2.79
2022-11-19T15:22:26.275Z,2.78
2022-11-19T15:25:18.078Z,2.74
2022-11-19T15:28:00.192Z,2.66
2022-11-19T15:30:49.768Z,2.50
2022-11-19T15:33:51.826Z,2.54
2022-11-19T15:36:35.292Z,2.53
2022-11-19T15:39:13.983Z,2.43
2022-11-19T15:42:00.595Z,2.43
2022-11-19T15:44:43.404Z,2.39
2022-11-19T15:47:17.602Z,2.30
2022-11-19T15:49:49.974Z,2.21
2022-11-19T15:52:28.124Z,2.19
2022-11-19T15:55:11.288Z,2.17
2022-11-19T15:57:44.125Z,2.04
2022-11-19T16:00:20.028Z,2.04
2022-11-19T16:02:49.632Z,2.04
2022-11-19T16:05:32.774Z,2.00
2022-11-19T16:08:08.436Z,1.97
2022-11-19T16:10:42.330Z,1.91
2022-11-19T16:13:42.212Z,1.89
2022-11-19T16:16:34.929Z,1.90
2022-11-19T16:19:06.208Z,1.88
2022-11-19T16:21:40.025Z,1.84
2022-11-19T16:24:32.419Z,1.82
2022-11-19T16:27:04.207Z,1.70
2022-11-19T16:29:39.076Z,1.67
2022-11-19T16:32:10.310Z,1.58
2022-11-19T16:34:38.250Z,1.46
2022-11-19T16:37:06.356Z,1.44
2022-11-19T16:39:37.071Z,1.40
2022-11-19T16:42:18.142Z,1.36
2022-11-19T16:44:49.213Z,1.36
2022-11-19T16:47:29.631Z,1.33
2022-11-19T16:50:05.203Z,1.30
2022-11-19T16:52:42.372Z,1.26
2022-11-19T16:55:42.904Z,1.22
2022-11-19T16:58:17.711Z,1.21
2022-11-19T17:00:51.021Z,1.20
2022-11-19T17:03:34.362Z,1.17
2022-11-19T17:06:04.850Z,1.18
2022-11-19T17:08:36.671Z,1.12
2022-11-19T17:11:38.403Z,1.03
2022-11-19T17:14:20.514Z,1.00
2022-11-19T17:16:50.978Z,0.93
2022-11-19T17:19:27.005Z,0.87
2022-11-19T17:22:03.194Z,0.85
2022-11-19T17:24:36.750Z,0.82
2022-11-19T17:27:06.823Z,0.79
2022-11-19T17:29:34.915Z,0.80
2022-11-19T17:32:04.201Z,0.73
2022-11-19T17:34:42.341Z,0.73
2022-11-19T17:37:10.162Z,0.77
2022-11-19T17:39:37.962Z,0.75
2022-11-19T17:42:27.722Z,0.79
2022-11-19T17:44:55.650Z,0.79
2022-11-19T17:47:24.210Z,0.71
2022-11-19T17:49:53.081Z,0.74
2022-11-19T17:52:24.883Z,0.73
2022-11-19T17:54:55.699Z,0.66
2022-11-19T17:57:25.323Z,0.61
2022-11-19T17:59:53.190Z,0.60
2022-11-19T18:02:21.497Z,0.61
2022-11-19T18:04:49.527Z,0.58
2022-11-19T18:07:17.312Z,0.56
2022-11-19T18:09:45.299Z,0.55
2022-11-19T18:12:17.654Z,0.50
2022-11-19T18:14:47.553Z,0.46
2022-11-19T18:17:16.315Z,0.46
2022-11-19T18:19:44.121Z,0.42
2022-11-19T18:22:18.311Z,0.42
2022-11-19T18:24:47.343Z,0.41
2022-11-19T18:27:15.544Z,0.38
2022-11-19T18:29:43.481Z,0.42
2022-11-19T18:32:15.879Z,0.40
2022-11-19T18:34:44.851Z,0.38
2022-11-19T18:37:13.227Z,0.40
2022-11-19T18:39:41.092Z,0.34
2022-11-19T18:42:10.813Z,0.30
2022-11-19T18:44:39.183Z,0.31
2022-11-19T18:47:10.172Z,0.25
2022-11-19T18:49:39.521Z,0.20
2022-11-19T18:52:14.457Z,0.17
2022-11-19T18:54:42.457Z,0.16
2022-11-19T18:57:11.535Z,0.07
2022-11-19T18:59:39.830Z,0.05
2022-11-19T19:02:09.609Z,0.02
2022-11-19T19:04:38.755Z,0.07
2022-11-19T19:07:06.690Z,0.07
2022-11-19T19:09:34.561Z,0.01
2022-11-19T19:12:17.499Z,0.02
2022-11-19T19:14:48.323Z,-0.01
2022-11-19T19:17:16.335Z,-0.08
2022-11-19T19:19:45.574Z,-0.08
2022-11-19T19:22:13.789Z,-0.05
2022-11-19T19:24:41.692Z,-0.10
2022-11-19T19:27:09.818Z,-0.07
2022-11-19T19:29:39.567Z,-0.06
2022-11-19T19:32:07.630Z,-0.06
2022-11-19T19:34:36.213Z,-0.13
2022-11-19T19:37:06.042Z,-0.15
2022-11-19T19:39:33.957Z,-0.14
2022-11-19T19:42:01.701Z,-0.15
2022-11-19T19:44:29.555Z,-0.17
2022-11-19T19:46:58.560Z,-0.20
2022-11-19T19:49:26.560Z,-0.24
2022-11-19T19:51:54.634Z,-0.24
2022-11-19T19:54:23.751Z,-0.24
2022-11-19T19:56:53.018Z,-0.26
2022-11-19T19:59:21.101Z,-0.21
2022-11-19T20:01:50.785Z,-0.28
2022-11-19T20:04:21.533Z,-0.29
2022-11-19T20:06:51.154Z,-0.29
2022-11-19T20:09:19.026Z,-0.22
2022-11-19T20:11:48.278Z,-0.22
2022-11-19T20:14:16.995Z,-0.18
2022-11-19T20:16:44.799Z,-0.11
2022-11-19T20:19:14.966Z,-0.14
2022-11-19T20:21:42.893Z,-0.35
2022-11-19T20:24:13.271Z,-0.39
2022-11-19T20:26:42.481Z,-0.40
2022-11-19T20:29:14.286Z,-0.42
2022-11-19T20:31:47.010Z,-0.47
2022-11-19T20:34:16.426Z,-0.53
2022-11-19T20:36:44.458Z,-0.59
2022-11-19T20:39:12.790Z,-0.65
2022-11-19T20:41:59.144Z,-0.71
2022-11-19T20:44:28.173Z,-0.76
2022-11-19T20:46:58.081Z,-0.80
2022-11-19T20:49:28.578Z,-0.82
2022-11-19T20:51:57.688Z,-0.78
2022-11-19T20:54:28.342Z,-0.87
2022-11-19T20:56:59.724Z,-0.95
2022-11-19T20:59:29.395Z,-0.87
2022-11-19T21:01:57.898Z,-0.86
2022-11-19T21:04:28.415Z,-0.92
2022-11-19T21:06:56.471Z,-0.99
2022-11-19T21:09:25.174Z,-1.00
2022-11-19T21:11:53.528Z,-1.01
2022-11-19T21:14:21.312Z,-1.10
2022-11-19T21:16:50.548Z,-1.18
2022-11-19T21:19:18.941Z,-1.21
2022-11-19T21:21:47.172Z,-1.24
2022-11-19T21:24:15.118Z,-1.28
2022-11-19T21:26:42.936Z,-1.25
2022-11-19T21:29:10.993Z,-1.25
2022-11-19T21:31:41.318Z,-1.35
2022-11-19T21:34:13.180Z,-1.34
2022-11-19T21:36:42.957Z,-1.30
2022-11-19T21:39:12.131Z,-1.29
2022-11-19T21:41:40.349Z,-1.39
2022-11-19T21:44:08.768Z,-1.43
2022-11-19T21:46:36.899Z,-1.36
2022-11-19T21:49:05.406Z,-1.27
2022-11-19T21:51:34.719Z,-1.24
2022-11-19T21:54:02.642Z,-1.23
2022-11-19T21:56:35.516Z,-1.18
2022-11-19T21:59:07.149Z,-1.19
2022-11-19T22:01:35.417Z,-1.19
2022-11-19T22:04:04.568Z,-1.16
2022-11-19T22:06:34.156Z,-1.14
2022-11-19T22:09:02.252Z,-1.09
2022-11-19T22:11:30.396Z,-1.04
2022-11-19T22:14:01.768Z,-1.01
2022-11-19T22:16:33.651Z,-1.01
2022-11-19T22:19:01.848Z,-1.00
2022-11-19T22:21:29.767Z,-1.02
2022-11-19T22:23:59.281Z,-1.01
2022-11-19T22:26:27.419Z,-1.12
2022-11-19T22:28:55.766Z,-1.12
2022-11-19T22:31:24.987Z,-1.15
2022-11-19T22:33:53.594Z,-1.24
2022-11-19T22:36:23.115Z,-1.26
2022-11-19T22:38:51.886Z,-1.33
2022-11-19T22:41:22.111Z,-1.41
2022-11-19T22:43:50.494Z,-1.39
2022-11-19T22:46:19.762Z,-1.42
2022-11-19T22:48:47.834Z,-1.49
2022-11-19T22:51:19.062Z,-1.57
2022-11-19T22:53:47.973Z,-1.59
2022-11-19T22:56:18.528Z,-1.58
2022-11-19T22:58:48.767Z,-1.63
2022-11-19T23:01:19.168Z,-1.65
2022-11-19T23:03:47.478Z,-1.69
2022-11-19T23:06:16.149Z,-1.71
2022-11-19T23:08:44.457Z,-1.76
2022-11-19T23:11:15.146Z,-1.84
2022-11-19T23:13:44.934Z,-1.85
2022-11-19T23:16:17.696Z,-1.93
2022-11-19T23:18:47.967Z,-1.98
2022-11-19T23:21:18.525Z,-2.01
2022-11-19T23:23:46.781Z,-1.96
2022-11-19T23:26:17.439Z,-1.94
2022-11-19T23:28:45.488Z,-1.95
2022-11-19T23:31:18.134Z,-1.87
2022-11-19T23:33:47.021Z,-1.84
2022-11-19T23:36:17.498Z,-1.84
2022-11-19T23:38:45.995Z,-1.86
2022-11-19T23:41:16.834Z,-1.88
2022-11-19T23:43:45.740Z,-1.88
2022-11-19T23:46:18.927Z,-1.86
2022-11-19T23:48:49.511Z,-1.88
2022-11-19T23:51:20.507Z,-1.90
2022-11-19T23:53:49.218Z,-1.90
2022-11-19T23:56:19.397Z,-1.93
2022-11-19T23:58:48.131Z,-1.97
